Time;durP1;ratioP1;P1;durP2;ratioP2;P2;SDS_P1;SDS_P2;PMS_P1;PMS_P2;Temp;Humidity;BMP_temperature;BMP_pressure;BME280_temperature;BME280_humidity;BME280_pressure;Samples;Min_cycle;Max_cycle;Signal;HPM_P1;HPM_P2
2023/06/13 00:01:52;;;;;;;;;;;24.60;36.40;;;;;;1546931;75;679;-67
2023/06/13 00:03:54;;;;;;;;;;;24.60;36.40;;;;;;1547728;74;720;-68
2023/06/13 00:06:01;;;;;;;;;;;24.60;36.40;;;;;;1560067;75;745;-68
2023/06/13 00:08:00;;;;;;;;;;;24.60;36.50;;;;;;1546511;75;1492;-68
2023/06/13 00:10:02;;;;;;;;;;;24.60;36.50;;;;;;1548372;75;728;-66
2023/06/13 00:12:05;;;;;;;;;;;24.60;36.70;;;;;;1541210;75;749;-66
2023/06/13 00:14:10;;;;;;;;;;;24.60;36.70;;;;;;1560359;75;1925;-66
2023/06/13 00:16:11;;;;;;;;;;;24.50;36.80;;;;;;1539939;75;1756;-66
2023/06/13 00:18:15;;;;;;;;;;;24.50;36.80;;;;;;1548510;75;1191;-69
2023/06/13 00:20:17;;;;;;;;;;;24.50;36.70;;;;;;1563969;75;729;-68
2023/06/13 00:22:19;;;;;;;;;;;24.60;36.80;;;;;;1542924;75;748;-68
2023/06/13 00:24:21;;;;;;;;;;;24.50;37.00;;;;;;1568355;75;723;-68
2023/06/13 00:26:23;;;;;;;;;;;24.60;37.00;;;;;;1553380;75;734;-68
2023/06/13 00:28:25;;;;;;;;;;;24.60;37.00;;;;;;1546719;74;1543;-69
2023/06/13 00:30:27;;;;;;;;;;;24.60;37.00;;;;;;1546254;74;715;-67
2023/06/13 00:32:29;;;;;;;;;;;24.60;37.00;;;;;;1562995;75;726;-68
2023/06/13 00:34:30;;;;;;;;;;;24.50;36.90;;;;;;1554963;75;1946;-68
2023/06/13 00:36:33;;;;;;;;;;;24.60;37.00;;;;;;1552257;75;708;-67
2023/06/13 00:38:37;;;;;;;;;;;24.60;37.10;;;;;;1541169;75;1153;-68
2023/06/13 00:40:41;;;;;;;;;;;24.60;37.10;;;;;;1543268;75;690;-69
2023/06/13 00:42:43;;;;;;;;;;;24.60;37.00;;;;;;1543757;75;1421;-68
2023/06/13 00:44:45;;;;;;;;;;;24.50;37.00;;;;;;1556358;75;718;-69
2023/06/13 00:46:47;;;;;;;;;;;24.50;37.10;;;;;;1549798;75;682;-67
2023/06/13 00:48:49;;;;;;;;;;;24.60;37.10;;;;;;1554989;75;1159;-67
2023/06/13 00:50:52;;;;;;;;;;;24.60;37.00;;;;;;1559013;75;790;-69
2023/06/13 00:52:56;;;;;;;;;;;24.50;37.10;;;;;;1559335;75;722;-70
2023/06/13 00:54:57;;;;;;;;;;;24.60;37.10;;;;;;1572761;75;1962;-67
2023/06/13 00:56:59;;;;;;;;;;;24.60;37.10;;;;;;1555459;75;919;-68
2023/06/13 00:59:02;;;;;;;;;;;24.60;37.10;;;;;;1544461;76;1163;-67
2023/06/13 01:01:05;;;;;;;;;;;24.50;37.20;;;;;;1550954;76;790;-67
2023/06/13 01:03:15;;;;;;;;;;;24.50;37.10;;;;;;1557896;76;752;-70
2023/06/13 01:05:13;;;;;;;;;;;24.50;37.20;;;;;;1561949;75;1490;-71
2023/06/13 01:07:15;;;;;;;;;;;24.50;37.10;;;;;;1543827;76;806;-67
2023/06/13 01:09:17;;;;;;;;;;;24.60;37.20;;;;;;1553419;76;733;-67
2023/06/13 01:11:21;;;;;;;;;;;24.50;37.30;;;;;;1547113;76;811;-69
2023/06/13 01:13:30;;;;;;;;;;;24.60;37.20;;;;;;1548804;76;1788;-66
2023/06/13 01:15:33;;;;;;;;;;;24.60;37.40;;;;;;1561999;76;729;-70
2023/06/13 01:17:41;;;;;;;;;;;24.50;37.50;;;;;;1549565;76;1142;-66
2023/06/13 01:19:43;;;;;;;;;;;24.60;37.60;;;;;;1553881;75;1795;-67
2023/06/13 01:21:45;;;;;;;;;;;24.50;37.70;;;;;;1550126;76;724;-67
2023/06/13 01:23:55;;;;;;;;;;;24.50;37.80;;;;;;1557683;76;730;-67
2023/06/13 01:26:02;;;;;;;;;;;24.50;37.90;;;;;;1555523;74;763;-67
2023/06/13 01:28:06;;;;;;;;;;;24.40;37.90;;;;;;1546010;76;1164;-66
2023/06/13 01:30:08;;;;;;;;;;;24.50;37.80;;;;;;1545403;76;710;-66
2023/06/13 01:32:10;;;;;;;;;;;24.50;37.90;;;;;;1552698;76;778;-66
2023/06/13 01:34:12;;;;;;;;;;;24.50;37.90;;;;;;1557139;74;1942;-65
2023/06/13 01:36:14;;;;;;;;;;;24.50;37.90;;;;;;1559810;74;796;-65
2023/06/13 01:38:16;;;;;;;;;;;24.50;37.60;;;;;;1555524;76;1149;-65
2023/06/13 01:40:18;;;;;;;;;;;24.50;37.60;;;;;;1555816;76;775;-66
2023/06/13 01:42:20;;;;;;;;;;;24.50;37.50;;;;;;1559301;75;718;-66
2023/06/13 01:44:22;;;;;;;;;;;24.60;37.50;;;;;;1562315;75;712;-67
2023/06/13 01:46:26;;;;;;;;;;;24.60;37.50;;;;;;1563740;75;737;-65
2023/06/13 01:48:38;;;;;;;;;;;24.60;37.40;;;;;;1546052;74;1185;-65
2023/06/13 01:51:00;;;;;;;;;;;24.50;37.40;;;;;;1526589;76;1802;-68
2023/06/13 01:53:10;;;;;;;;;;;24.60;37.40;;;;;;1511464;78;1053;-66
2023/06/13 01:55:16;;;;;;;;;;;24.50;37.50;;;;;;1513749;77;1923;-66
2023/06/13 01:57:20;;;;;;;;;;;24.50;37.50;;;;;;1514901;78;1931;-66
2023/06/13 01:59:23;;;;;;;;;;;24.60;37.50;;;;;;1554137;75;1073;-65
2023/06/13 02:01:28;;;;;;;;;;;24.50;37.50;;;;;;1574583;75;791;-65
2023/06/13 02:03:30;;;;;;;;;;;24.50;37.50;;;;;;1546720;75;794;-66
2023/06/13 02:05:32;;;;;;;;;;;24.50;37.60;;;;;;1537791;75;867;-66
2023/06/13 02:07:37;;;;;;;;;;;24.50;37.70;;;;;;1555673;74;1169;-67
2023/06/13 02:09:38;;;;;;;;;;;24.50;37.60;;;;;;1561885;74;975;-66
2023/06/13 02:11:40;;;;;;;;;;;24.50;37.80;;;;;;1548804;74;818;-66
2023/06/13 02:13:41;;;;;;;;;;;24.50;37.90;;;;;;1546157;75;776;-67
2023/06/13 02:15:43;;;;;;;;;;;24.60;37.70;;;;;;1562532;74;1940;-67
2023/06/13 02:17:45;;;;;;;;;;;24.50;37.80;;;;;;1554857;74;1122;-67
2023/06/13 02:19:47;;;;;;;;;;;24.50;37.60;;;;;;1568906;75;711;-67
2023/06/13 02:21:49;;;;;;;;;;;24.50;37.60;;;;;;1569139;75;721;-67
2023/06/13 02:23:51;;;;;;;;;;;24.50;37.70;;;;;;1558141;75;750;-66
2023/06/13 02:25:53;;;;;;;;;;;24.50;37.70;;;;;;1545952;74;761;-67
2023/06/13 02:27:55;;;;;;;;;;;24.50;38.00;;;;;;1554072;75;1134;-67
2023/06/13 02:29:57;;;;;;;;;;;24.50;38.10;;;;;;1554364;74;786;-68
2023/06/13 02:31:59;;;;;;;;;;;24.60;38.50;;;;;;1562487;75;769;-67
2023/06/13 02:34:00;;;;;;;;;;;24.50;38.30;;;;;;1544153;75;1940;-68
2023/06/13 02:36:02;;;;;;;;;;;24.50;38.00;;;;;;1556480;75;685;-67
2023/06/13 02:38:06;;;;;;;;;;;24.60;37.90;;;;;;1550890;76;1138;-68
2023/06/13 02:40:09;;;;;;;;;;;24.50;37.90;;;;;;1559908;75;2189;-68
2023/06/13 02:42:11;;;;;;;;;;;24.50;37.80;;;;;;1572057;74;753;-68
2023/06/13 02:44:13;;;;;;;;;;;24.50;37.80;;;;;;1554542;75;762;-67
2023/06/13 02:46:15;;;;;;;;;;;24.50;37.80;;;;;;1573963;75;754;-68
2023/06/13 02:48:17;;;;;;;;;;;24.60;37.70;;;;;;1563394;75;1131;-67
2023/06/13 02:50:19;;;;;;;;;;;24.60;37.80;;;;;;1562080;75;728;-67
2023/06/13 02:52:21;;;;;;;;;;;24.50;37.80;;;;;;1547776;74;1485;-67
2023/06/13 02:54:23;;;;;;;;;;;24.60;37.90;;;;;;1569638;75;1912;-66
2023/06/13 02:56:26;;;;;;;;;;;24.50;37.80;;;;;;1557466;75;781;-66
2023/06/13 02:58:28;;;;;;;;;;;24.60;37.90;;;;;;1548826;74;1105;-66
2023/06/13 03:00:29;;;;;;;;;;;24.50;37.80;;;;;;1563585;75;687;-66
2023/06/13 03:02:31;;;;;;;;;;;24.50;37.80;;;;;;1554756;75;729;-67
2023/06/13 03:04:33;;;;;;;;;;;24.60;37.80;;;;;;1562532;75;805;-67
2023/06/13 03:06:36;;;;;;;;;;;24.50;37.80;;;;;;1559323;75;1737;-67
2023/06/13 03:08:38;;;;;;;;;;;24.50;38.00;;;;;;1551044;75;1197;-66
2023/06/13 03:10:39;;;;;;;;;;;24.50;38.40;;;;;;1557682;75;732;-66
2023/06/13 03:12:41;;;;;;;;;;;24.50;38.00;;;;;;1552026;74;718;-66
2023/06/13 03:14:45;;;;;;;;;;;24.50;37.90;;;;;;1552791;74;1945;-68
2023/06/13 03:16:47;;;;;;;;;;;24.50;38.00;;;;;;1570369;74;675;-68
2023/06/13 03:18:49;;;;;;;;;;;24.60;38.10;;;;;;1552771;75;1156;-68
2023/06/13 03:20:52;;;;;;;;;;;24.50;38.00;;;;;;1548839;75;1310;-69
2023/06/13 03:22:54;;;;;;;;;;;24.50;38.10;;;;;;1571008;75;827;-67
2023/06/13 03:24:56;;;;;;;;;;;24.50;38.00;;;;;;1556446;75;790;-68
2023/06/13 03:26:59;;;;;;;;;;;24.50;38.00;;;;;;1548889;75;749;-68
2023/06/13 03:29:00;;;;;;;;;;;24.50;37.90;;;;;;1554690;75;1128;-64
2023/06/13 03:31:02;;;;;;;;;;;24.50;37.90;;;;;;1553101;74;782;-65
2023/06/13 03:33:04;;;;;;;;;;;24.50;38.00;;;;;;1556907;75;722;-64
2023/06/13 03:35:06;;;;;;;;;;;24.60;38.10;;;;;;1557022;74;1935;-64
2023/06/13 03:37:08;;;;;;;;;;;24.50;38.00;;;;;;1556778;75;731;-64
2023/06/13 03:39:10;;;;;;;;;;;24.50;37.90;;;;;;1560061;74;1082;-64
2023/06/13 03:41:12;;;;;;;;;;;24.50;37.90;;;;;;1561472;75;760;-63
2023/06/13 03:43:14;;;;;;;;;;;24.50;38.00;;;;;;1568271;75;772;-66
2023/06/13 03:45:17;;;;;;;;;;;24.50;38.00;;;;;;1557809;75;761;-66
2023/06/13 03:47:18;;;;;;;;;;;24.50;38.10;;;;;;1566548;75;1123;-66
2023/06/13 03:49:20;;;;;;;;;;;24.50;38.00;;;;;;1559628;75;1424;-66
2023/06/13 03:51:22;;;;;;;;;;;24.60;37.90;;;;;;1557681;75;742;-65
2023/06/13 03:53:24;;;;;;;;;;;24.50;37.90;;;;;;1566467;75;735;-66
2023/06/13 03:55:26;;;;;;;;;;;24.50;37.90;;;;;;1567518;75;1940;-66
2023/06/13 03:57:31;;;;;;;;;;;24.50;37.90;;;;;;1559450;75;1130;-66
2023/06/13 03:59:32;;;;;;;;;;;24.50;38.00;;;;;;1559305;75;1608;-67
2023/06/13 04:01:34;;;;;;;;;;;24.50;38.20;;;;;;1558960;75;1519;-66
2023/06/13 04:03:39;;;;;;;;;;;24.50;38.40;;;;;;1558709;75;668;-67
2023/06/13 04:05:39;;;;;;;;;;;24.50;38.10;;;;;;1561919;75;1600;-65
2023/06/13 04:07:42;;;;;;;;;;;24.50;38.20;;;;;;1566123;75;1184;-65
2023/06/13 04:09:44;;;;;;;;;;;24.50;38.20;;;;;;1570122;74;732;-65
2023/06/13 04:11:46;;;;;;;;;;;24.50;38.40;;;;;;1553942;75;831;-65
2023/06/13 04:13:48;;;;;;;;;;;24.50;38.40;;;;;;1559009;75;735;-65
2023/06/13 04:15:50;;;;;;;;;;;24.50;38.40;;;;;;1558565;74;1951;-67
2023/06/13 04:17:52;;;;;;;;;;;24.50;38.20;;;;;;1554513;74;1185;-67
2023/06/13 04:19:54;;;;;;;;;;;24.50;38.60;;;;;;1562543;75;803;-67
2023/06/13 04:21:56;;;;;;;;;;;24.50;38.70;;;;;;1561534;75;806;-67
2023/06/13 04:23:58;;;;;;;;;;;24.50;38.40;;;;;;1560371;75;795;-67
2023/06/13 04:26:02;;;;;;;;;;;24.50;38.60;;;;;;1572914;75;796;-64
2023/06/13 04:28:04;;;;;;;;;;;24.50;38.90;;;;;;1547964;75;2032;-65
2023/06/13 04:30:06;;;;;;;;;;;24.40;38.70;;;;;;1560948;75;1581;-65
2023/06/13 04:32:13;;;;;;;;;;;24.50;39.20;;;;;;1550745;74;722;-65
2023/06/13 04:34:13;;;;;;;;;;;24.40;39.20;;;;;;1550422;74;1606;-65
2023/06/13 04:36:15;;;;;;;;;;;24.50;39.20;;;;;;1567375;74;1922;-65
2023/06/13 04:38:20;;;;;;;;;;;24.40;39.00;;;;;;1559748;75;1138;-65
2023/06/13 04:40:20;;;;;;;;;;;24.40;38.90;;;;;;1547420;75;1665;-64
2023/06/13 04:42:29;;;;;;;;;;;24.50;38.80;;;;;;1552879;75;754;-65
2023/06/13 04:44:33;;;;;;;;;;;24.50;39.00;;;;;;1563390;75;1499;-66
2023/06/13 04:46:35;;;;;;;;;;;24.50;38.90;;;;;;1557082;75;1987;-67
2023/06/13 04:48:37;;;;;;;;;;;24.50;38.70;;;;;;1566625;75;1156;-63
2023/06/13 04:50:41;;;;;;;;;;;24.50;39.20;;;;;;1580564;74;746;-65
2023/06/13 04:52:43;;;;;;;;;;;24.50;38.80;;;;;;1564201;74;896;-64
2023/06/13 04:54:48;;;;;;;;;;;24.40;38.60;;;;;;1552627;75;1939;-64
2023/06/13 04:56:50;;;;;;;;;;;24.40;38.00;;;;;;1558194;75;915;-66
2023/06/13 04:58:52;;;;;;;;;;;24.40;37.90;;;;;;1569930;74;1567;-67
2023/06/13 05:00:57;;;;;;;;;;;24.30;37.70;;;;;;1542021;74;1068;-64
2023/06/13 05:03:00;;;;;;;;;;;24.30;37.60;;;;;;1549125;74;1656;-64
2023/06/13 05:05:04;;;;;;;;;;;24.30;37.10;;;;;;1553262;74;1388;-65
2023/06/13 05:07:06;;;;;;;;;;;24.30;37.00;;;;;;1564859;74;1493;-64
2023/06/13 05:09:08;;;;;;;;;;;24.20;36.80;;;;;;1566037;74;1163;-65
2023/06/13 05:11:10;;;;;;;;;;;24.20;36.30;;;;;;1558864;74;782;-65
2023/06/13 05:13:12;;;;;;;;;;;24.20;36.40;;;;;;1551321;74;1559;-64
2023/06/13 05:15:14;;;;;;;;;;;24.20;35.20;;;;;;1566084;74;1983;-64
2023/06/13 05:17:16;;;;;;;;;;;24.10;35.60;;;;;;1552302;74;706;-64
2023/06/13 05:19:19;;;;;;;;;;;24.10;35.50;;;;;;1561167;74;690;-65
2023/06/13 05:21:21;;;;;;;;;;;24.10;35.40;;;;;;1560272;74;764;-65
2023/06/13 05:23:23;;;;;;;;;;;24.10;35.70;;;;;;1557793;74;751;-65
2023/06/13 05:25:25;;;;;;;;;;;24.10;35.60;;;;;;1571134;74;800;-65
2023/06/13 05:27:27;;;;;;;;;;;24.10;35.10;;;;;;1576101;74;1522;-65
2023/06/13 05:29:30;;;;;;;;;;;24.10;35.20;;;;;;1564758;74;754;-64
2023/06/13 05:31:33;;;;;;;;;;;24.20;34.90;;;;;;1576984;74;788;-65
2023/06/13 05:33:37;;;;;;;;;;;24.10;34.60;;;;;;1558972;74;749;-65
2023/06/13 05:35:39;;;;;;;;;;;24.10;34.80;;;;;;1558093;74;1909;-65
2023/06/13 05:37:41;;;;;;;;;;;24.10;34.50;;;;;;1558559;74;1125;-63
2023/06/13 05:39:43;;;;;;;;;;;24.20;35.00;;;;;;1581749;74;774;-64
2023/06/13 05:41:45;;;;;;;;;;;24.20;34.90;;;;;;1556693;74;1430;-65
2023/06/13 05:43:47;;;;;;;;;;;24.10;34.40;;;;;;1554708;74;722;-64
2023/06/13 05:45:48;;;;;;;;;;;24.10;34.80;;;;;;1560445;74;791;-65
2023/06/13 05:47:50;;;;;;;;;;;24.10;35.20;;;;;;1560542;74;1134;-64
2023/06/13 05:49:52;;;;;;;;;;;24.10;35.00;;;;;;1546778;74;715;-64
2023/06/13 05:51:54;;;;;;;;;;;24.10;35.10;;;;;;1585169;74;753;-64
2023/06/13 05:53:56;;;;;;;;;;;24.10;35.00;;;;;;1559152;74;715;-64
2023/06/13 05:55:58;;;;;;;;;;;24.10;35.20;;;;;;1550617;74;1929;-64
2023/06/13 05:58:00;;;;;;;;;;;24.10;35.10;;;;;;1556006;74;1169;-65
2023/06/13 06:00:02;;;;;;;;;;;24.10;35.20;;;;;;1559621;74;1084;-64
2023/06/13 06:02:05;;;;;;;;;;;24.10;35.00;;;;;;1558083;75;787;-64
2023/06/13 06:04:06;;;;;;;;;;;24.10;34.60;;;;;;1555430;75;791;-65
2023/06/13 06:06:08;;;;;;;;;;;24.10;33.90;;;;;;1560583;75;736;-65
2023/06/13 06:08:11;;;;;;;;;;;24.00;33.50;;;;;;1554556;75;1576;-64
2023/06/13 06:10:14;;;;;;;;;;;24.00;33.60;;;;;;1553161;75;616;-64
2023/06/13 06:12:16;;;;;;;;;;;24.10;33.50;;;;;;1553123;75;818;-64
2023/06/13 06:14:17;;;;;;;;;;;24.10;33.60;;;;;;1558232;75;766;-64
2023/06/13 06:16:20;;;;;;;;;;;24.00;33.10;;;;;;1554011;74;1955;-65
2023/06/13 06:18:22;;;;;;;;;;;24.00;33.10;;;;;;1564637;75;1133;-64
2023/06/13 06:20:25;;;;;;;;;;;24.00;33.20;;;;;;1573188;75;800;-65
2023/06/13 06:22:27;;;;;;;;;;;24.00;33.40;;;;;;1552675;74;1543;-64
2023/06/13 06:24:28;;;;;;;;;;;24.10;33.20;;;;;;1550418;75;625;-64
2023/06/13 06:26:30;;;;;;;;;;;24.00;33.00;;;;;;1567910;75;792;-64
2023/06/13 06:28:32;;;;;;;;;;;24.00;33.20;;;;;;1554655;75;1128;-64
2023/06/13 06:30:35;;;;;;;;;;;24.00;32.90;;;;;;1553110;74;661;-64
2023/06/13 06:32:37;;;;;;;;;;;24.00;33.10;;;;;;1549183;75;718;-64
2023/06/13 06:34:39;;;;;;;;;;;24.00;33.10;;;;;;1560337;75;671;-65
2023/06/13 06:36:41;;;;;;;;;;;24.00;33.10;;;;;;1569367;75;1918;-64
2023/06/13 06:38:43;;;;;;;;;;;24.00;32.90;;;;;;1563748;75;1125;-64
2023/06/13 06:40:45;;;;;;;;;;;24.00;33.20;;;;;;1553199;75;793;-65
2023/06/13 06:42:46;;;;;;;;;;;24.00;33.20;;;;;;1563083;74;795;-64
2023/06/13 06:44:48;;;;;;;;;;;24.00;33.30;;;;;;1570073;74;733;-64
2023/06/13 06:46:50;;;;;;;;;;;24.00;33.10;;;;;;1557714;75;778;-64
2023/06/13 06:48:52;;;;;;;;;;;24.10;33.40;;;;;;1548958;75;1189;-63
2023/06/13 06:50:56;;;;;;;;;;;24.00;30.50;;;;;;1557501;75;1600;-64
2023/06/13 06:52:58;;;;;;;;;;;24.00;30.20;;;;;;1556691;74;733;-64
2023/06/13 06:55:00;;;;;;;;;;;23.90;30.10;;;;;;1558494;74;716;-64
2023/06/13 06:57:03;;;;;;;;;;;23.90;30.00;;;;;;1570738;74;1958;-65
2023/06/13 06:59:05;;;;;;;;;;;23.90;29.30;;;;;;1554652;74;1336;-65
2023/06/13 07:01:07;;;;;;;;;;;23.90;29.30;;;;;;1557862;75;1088;-64
2023/06/13 07:03:09;;;;;;;;;;;23.80;29.20;;;;;;1565490;75;780;-65
2023/06/13 07:05:11;;;;;;;;;;;23.80;29.00;;;;;;1567852;75;1554;-65
2023/06/13 07:07:12;;;;;;;;;;;23.80;29.10;;;;;;1558510;75;796;-64
2023/06/13 07:09:14;;;;;;;;;;;23.60;29.20;;;;;;1555472;75;1201;-64
2023/06/13 07:11:16;;;;;;;;;;;23.60;29.30;;;;;;1561428;75;756;-64
2023/06/13 07:13:18;;;;;;;;;;;23.60;29.00;;;;;;1563822;75;738;-64
2023/06/13 07:15:22;;;;;;;;;;;23.70;29.50;;;;;;1561561;74;698;-63
2023/06/13 07:17:24;;;;;;;;;;;23.80;28.90;;;;;;1548694;75;1924;-64
2023/06/13 07:19:26;;;;;;;;;;;23.70;28.90;;;;;;1570617;75;1608;-64
2023/06/13 07:21:27;;;;;;;;;;;23.80;29.30;;;;;;1554655;75;757;-64
2023/06/13 07:23:29;;;;;;;;;;;23.90;29.20;;;;;;1557639;75;816;-64
2023/06/13 07:25:32;;;;;;;;;;;23.90;28.60;;;;;;1567618;74;693;-63
2023/06/13 07:27:34;;;;;;;;;;;23.90;29.30;;;;;;1553696;75;1114;-65
2023/06/13 07:29:36;;;;;;;;;;;23.90;28.50;;;;;;1548229;75;728;-64
2023/06/13 07:31:38;;;;;;;;;;;23.90;28.10;;;;;;1564981;75;669;-64
2023/06/13 07:33:40;;;;;;;;;;;23.80;28.60;;;;;;1571559;75;1507;-64
2023/06/13 07:35:42;;;;;;;;;;;23.70;28.50;;;;;;1563532;75;1930;-64
2023/06/13 07:37:44;;;;;;;;;;;23.70;28.70;;;;;;1556429;75;1161;-65
2023/06/13 07:39:46;;;;;;;;;;;23.90;28.90;;;;;;1556278;74;761;-64
2023/06/13 07:41:49;;;;;;;;;;;23.90;28.90;;;;;;1562237;75;717;-64
2023/06/13 07:43:51;;;;;;;;;;;23.90;29.20;;;;;;1567522;75;756;-63
2023/06/13 07:45:53;;;;;;;;;;;23.90;28.90;;;;;;1559768;75;794;-65
2023/06/13 07:47:57;;;;;;;;;;;23.90;28.90;;;;;;1552186;75;1385;-65
2023/06/13 07:49:59;;;;;;;;;;;23.90;28.70;;;;;;1559782;75;720;-64
2023/06/13 07:52:01;;;;;;;;;;;23.90;28.90;;;;;;1553533;75;798;-65
2023/06/13 07:54:03;;;;;;;;;;;24.00;29.20;;;;;;1569218;74;746;-65
2023/06/13 07:56:05;;;;;;;;;;;24.00;28.60;;;;;;1553625;75;1938;-63
2023/06/13 07:58:06;;;;;;;;;;;23.90;28.70;;;;;;1564303;75;1160;-64
2023/06/13 08:00:16;;;;;;;;;;;24.00;28.50;;;;;;1547966;75;721;-65
2023/06/13 08:02:18;;;;;;;;;;;23.90;28.30;;;;;;1568109;75;1612;-64
2023/06/13 08:04:20;;;;;;;;;;;24.00;28.70;;;;;;1567576;75;748;-63
2023/06/13 08:06:22;;;;;;;;;;;23.90;28.40;;;;;;1556068;75;668;-65
2023/06/13 08:08:24;;;;;;;;;;;23.90;28.10;;;;;;1559616;74;1132;-64
2023/06/13 08:10:26;;;;;;;;;;;23.90;28.40;;;;;;1569456;74;814;-61
2023/06/13 08:12:28;;;;;;;;;;;24.00;28.40;;;;;;1565637;75;722;-63
2023/06/13 08:14:30;;;;;;;;;;;23.90;28.30;;;;;;1567127;74;742;-65
2023/06/13 08:16:32;;;;;;;;;;;23.90;28.70;;;;;;1557582;74;1941;-66
2023/06/13 08:18:34;;;;;;;;;;;23.90;28.80;;;;;;1563110;75;1181;-64
2023/06/13 08:20:36;;;;;;;;;;;23.90;28.60;;;;;;1560520;74;784;-66
2023/06/13 08:22:38;;;;;;;;;;;23.80;28.60;;;;;;1564757;74;1176;-66
2023/06/13 08:24:40;;;;;;;;;;;23.90;28.60;;;;;;1563364;74;734;-65
2023/06/13 08:26:42;;;;;;;;;;;23.90;28.50;;;;;;1564921;75;777;-65
2023/06/13 08:28:46;;;;;;;;;;;23.90;28.40;;;;;;1565649;75;1216;-65
2023/06/13 08:30:49;;;;;;;;;;;23.90;28.70;;;;;;1549101;74;713;-65
2023/06/13 08:32:52;;;;;;;;;;;23.90;28.90;;;;;;1557312;75;710;-65
2023/06/13 08:34:54;;;;;;;;;;;23.90;28.50;;;;;;1560702;74;802;-65
2023/06/13 08:36:57;;;;;;;;;;;23.90;28.60;;;;;;1561340;74;1922;-65
2023/06/13 08:38:59;;;;;;;;;;;23.90;28.50;;;;;;1556812;74;1128;-65
2023/06/13 08:41:00;;;;;;;;;;;23.90;28.80;;;;;;1567454;75;765;-64
2023/06/13 08:43:02;;;;;;;;;;;23.90;29.00;;;;;;1565088;74;1515;-65
2023/06/13 08:45:05;;;;;;;;;;;24.00;29.50;;;;;;1556777;74;758;-65
2023/06/13 08:47:06;;;;;;;;;;;23.90;28.80;;;;;;1552601;74;782;-65
2023/06/13 08:49:09;;;;;;;;;;;24.00;28.70;;;;;;1559760;75;1115;-65
2023/06/13 08:51:14;;;;;;;;;;;24.00;28.70;;;;;;1556829;75;732;-65
2023/06/13 08:53:14;;;;;;;;;;;24.10;28.70;;;;;;1553359;75;1729;-65
2023/06/13 08:55:17;;;;;;;;;;;24.00;28.30;;;;;;1565653;74;758;-65
2023/06/13 08:57:18;;;;;;;;;;;24.00;27.80;;;;;;1561997;74;1936;-65
2023/06/13 08:59:26;;;;;;;;;;;24.00;28.00;;;;;;1556720;75;781;-66
2023/06/13 09:01:28;;;;;;;;;;;24.00;27.90;;;;;;1550513;75;785;-65
2023/06/13 09:03:29;;;;;;;;;;;24.00;28.00;;;;;;1551528;74;941;-65
2023/06/13 09:05:31;;;;;;;;;;;24.00;27.80;;;;;;1557029;74;696;-65
2023/06/13 09:07:33;;;;;;;;;;;24.00;27.70;;;;;;1543462;75;1203;-65
2023/06/13 09:09:35;;;;;;;;;;;24.00;27.20;;;;;;1550492;75;728;-65
2023/06/13 09:11:37;;;;;;;;;;;24.00;27.40;;;;;;1551827;75;1558;-65
2023/06/13 09:13:40;;;;;;;;;;;23.90;27.20;;;;;;1550169;75;721;-65
2023/06/13 09:15:42;;;;;;;;;;;23.90;27.40;;;;;;1550048;75;571;-65
2023/06/13 09:17:44;;;;;;;;;;;23.90;27.40;;;;;;1549117;74;1887;-66
2023/06/13 09:19:47;;;;;;;;;;;23.90;27.20;;;;;;1560321;75;800;-65
2023/06/13 09:21:50;;;;;;;;;;;23.80;27.10;;;;;;1547675;75;678;-65
2023/06/13 09:23:53;;;;;;;;;;;23.80;27.10;;;;;;1548070;75;739;-65
2023/06/13 09:25:55;;;;;;;;;;;23.80;27.30;;;;;;1552018;75;1425;-65
2023/06/13 09:27:57;;;;;;;;;;;23.70;27.10;;;;;;1546732;75;1132;-65
2023/06/13 09:30:00;;;;;;;;;;;23.70;26.90;;;;;;1546879;74;1062;-65
2023/06/13 09:32:03;;;;;;;;;;;23.80;27.20;;;;;;1555867;75;698;-65
2023/06/13 09:34:09;;;;;;;;;;;23.80;27.10;;;;;;1547378;75;783;-65
2023/06/13 09:36:09;;;;;;;;;;;23.90;27.00;;;;;;1557215;75;1526;-65
2023/06/13 09:38:12;;;;;;;;;;;23.90;27.10;;;;;;1556132;75;1902;-65
2023/06/13 09:40:14;;;;;;;;;;;23.80;27.10;;;;;;1550582;75;1586;-65
2023/06/13 09:42:16;;;;;;;;;;;23.80;27.30;;;;;;1557735;75;648;-65
2023/06/13 09:44:18;;;;;;;;;;;23.80;27.10;;;;;;1537022;76;845;-65
2023/06/13 09:46:23;;;;;;;;;;;23.80;26.80;;;;;;1521564;76;741;-65
2023/06/13 09:48:24;;;;;;;;;;;23.80;26.90;;;;;;1487887;77;1239;-65
2023/06/13 09:50:25;;;;;;;;;;;23.80;27.10;;;;;;1498802;77;774;-65
2023/06/13 09:52:30;;;;;;;;;;;23.70;26.80;;;;;;1488065;78;1159;-65
2023/06/13 09:54:32;;;;;;;;;;;23.80;26.50;;;;;;1499299;77;1552;-65
2023/06/13 09:56:34;;;;;;;;;;;23.80;25.50;;;;;;1496697;78;1939;-65
2023/06/13 09:58:36;;;;;;;;;;;23.80;25.70;;;;;;1498588;78;1143;-65
2023/06/13 10:00:38;;;;;;;;;;;23.70;25.50;;;;;;1506982;77;793;-65
2023/06/13 10:02:39;;;;;;;;;;;23.60;26.20;;;;;;1543601;75;1083;-64
2023/06/13 10:04:41;;;;;;;;;;;23.60;25.80;;;;;;1549966;74;689;-64
2023/06/13 10:06:43;;;;;;;;;;;23.60;25.80;;;;;;1546674;74;711;-65
2023/06/13 10:08:45;;;;;;;;;;;23.60;26.30;;;;;;1551152;74;1586;-65
2023/06/13 10:10:47;;;;;;;;;;;23.60;26.10;;;;;;1565586;74;662;-65
2023/06/13 10:12:49;;;;;;;;;;;23.60;26.40;;;;;;1572794;74;769;-65
2023/06/13 10:14:53;;;;;;;;;;;23.60;26.40;;;;;;1552096;74;778;-65
2023/06/13 10:16:56;;;;;;;;;;;23.60;25.40;;;;;;1552571;74;1933;-64
2023/06/13 10:18:58;;;;;;;;;;;23.60;25.10;;;;;;1556012;74;1129;-65
2023/06/13 10:21:00;;;;;;;;;;;23.60;24.90;;;;;;1533372;76;820;-67
2023/06/13 10:23:02;;;;;;;;;;;23.60;25.00;;;;;;1558615;74;1668;-65
2023/06/13 10:25:05;;;;;;;;;;;23.60;24.90;;;;;;1573672;74;692;-65
2023/06/13 10:27:07;;;;;;;;;;;23.60;25.30;;;;;;1559458;74;767;-67
2023/06/13 10:29:20;;;;;;;;;;;23.50;24.80;;;;;;1563661;74;1128;-65
2023/06/13 10:31:26;;;;;;;;;;;23.50;24.70;;;;;;1566282;74;832;-65
2023/06/13 10:33:38;;;;;;;;;;;23.50;24.80;;;;;;1556477;74;1321;-65
2023/06/13 10:36:00;;;;;;;;;;;23.50;24.60;;;;;;1549586;74;1912;-65
2023/06/13 10:38:09;;;;;;;;;;;23.50;24.50;;;;;;1562554;74;1933;-67
2023/06/13 10:40:13;;;;;;;;;;;23.50;25.20;;;;;;1560702;74;710;-68
2023/06/13 10:42:25;;;;;;;;;;;23.50;23.90;;;;;;1559923;74;806;-67
2023/06/13 10:44:29;;;;;;;;;;;23.50;24.70;;;;;;1560338;74;765;-68
2023/06/13 10:46:31;;;;;;;;;;;23.50;24.50;;;;;;1556250;74;1869;-67
2023/06/13 10:48:34;;;;;;;;;;;23.50;24.40;;;;;;1553153;74;1147;-68
2023/06/13 10:50:40;;;;;;;;;;;23.50;23.90;;;;;;1557108;74;1359;-68
2023/06/13 10:52:48;;;;;;;;;;;23.50;24.70;;;;;;1559855;74;694;-66
2023/06/13 10:54:58;;;;;;;;;;;23.50;24.20;;;;;;1562533;74;775;-66
2023/06/13 10:57:00;;;;;;;;;;;23.50;23.90;;;;;;1564275;74;1895;-66
2023/06/13 10:59:03;;;;;;;;;;;23.50;23.80;;;;;;1562908;74;1126;-65
2023/06/13 11:01:07;;;;;;;;;;;23.50;24.20;;;;;;1562382;74;1828;-65
2023/06/13 11:03:10;;;;;;;;;;;23.60;23.30;;;;;;1555929;74;1527;-65
2023/06/13 11:05:12;;;;;;;;;;;23.60;23.40;;;;;;1553661;75;1504;-65
2023/06/13 11:07:22;;;;;;;;;;;23.50;23.50;;;;;;1561852;75;718;-65
2023/06/13 11:09:25;;;;;;;;;;;23.50;24.20;;;;;;1557312;75;704;-66
2023/06/13 11:11:28;;;;;;;;;;;23.50;23.60;;;;;;1543999;75;723;-65
2023/06/13 11:13:34;;;;;;;;;;;23.50;23.30;;;;;;1539219;75;671;-65
2023/06/13 11:15:35;;;;;;;;;;;23.50;23.90;;;;;;1555421;74;756;-65
2023/06/13 11:17:37;;;;;;;;;;;23.60;23.60;;;;;;1543476;74;1940;-66
2023/06/13 11:19:39;;;;;;;;;;;23.50;23.00;;;;;;1528668;76;766;-65
2023/06/13 11:21:45;;;;;;;;;;;23.50;23.40;;;;;;1509190;77;809;-66
2023/06/13 11:23:49;;;;;;;;;;;23.50;23.90;;;;;;1516328;77;734;-66
2023/06/13 11:25:51;;;;;;;;;;;23.50;23.20;;;;;;1524600;77;888;-66
2023/06/13 11:27:53;;;;;;;;;;;23.50;23.10;;;;;;1508320;78;1186;-66
2023/06/13 11:29:55;;;;;;;;;;;23.50;22.80;;;;;;1511710;77;750;-66
2023/06/13 11:31:59;;;;;;;;;;;23.40;23.00;;;;;;1511839;77;1568;-66
2023/06/13 11:34:01;;;;;;;;;;;23.40;23.30;;;;;;1512576;77;1399;-66
2023/06/13 11:36:03;;;;;;;;;;;23.40;23.30;;;;;;1516407;78;809;-66
2023/06/13 11:38:06;;;;;;;;;;;23.50;23.60;;;;;;1499847;78;1936;-67
2023/06/13 11:40:09;;;;;;;;;;;23.40;23.40;;;;;;1517000;77;729;-65
2023/06/13 11:42:11;;;;;;;;;;;23.50;22.80;;;;;;1508878;77;709;-65
2023/06/13 11:44:12;;;;;;;;;;;23.40;22.90;;;;;;1516089;77;801;-64
2023/06/13 11:46:14;;;;;;;;;;;23.40;23.10;;;;;;1513117;77;1545;-64
2023/06/13 11:48:22;;;;;;;;;;;23.40;23.90;;;;;;1510872;77;1134;-64
2023/06/13 11:50:26;;;;;;;;;;;23.50;24.50;;;;;;1511394;77;1649;-64
2023/06/13 11:52:28;;;;;;;;;;;23.60;24.90;;;;;;1508968;77;746;-64
2023/06/13 11:54:30;;;;;;;;;;;23.70;25.20;;;;;;1512610;77;723;-64
2023/06/13 11:56:34;;;;;;;;;;;23.70;25.00;;;;;;1497666;77;759;-64
2023/06/13 11:58:37;;;;;;;;;;;23.80;24.90;;;;;;1512547;76;1919;-65
2023/06/13 12:00:53;;;;;;;;;;;23.90;25.00;;;;;;1524808;76;1736;-64
2023/06/13 12:02:56;;;;;;;;;;;23.80;24.70;;;;;;1532904;76;2007;-66
2023/06/13 12:04:58;;;;;;;;;;;23.80;24.80;;;;;;1521389;77;1430;-66
2023/06/13 12:07:03;;;;;;;;;;;23.90;25.00;;;;;;1512786;77;741;-66
2023/06/13 12:09:06;;;;;;;;;;;23.90;25.20;;;;;;1510970;76;1701;-64
2023/06/13 12:11:11;;;;;;;;;;;23.90;25.20;;;;;;1509190;78;724;-64
2023/06/13 12:13:14;;;;;;;;;;;23.90;25.20;;;;;;1516520;78;1072;-64